sensor_id;sensor_type;location;lat;lon;timestamp;P1;durP1;ratioP1;P2;durP2;ratioP2
43086;SDS011;28708;52.224;6.924;2023-03-01T00:01:55;8.50;;;5.93;;
43086;SDS011;28708;52.224;6.924;2023-03-01T00:04:21;10.40;;;6.27;;
43086;SDS011;28708;52.224;6.924;2023-03-01T00:06:46;11.93;;;7.47;;
43086;SDS011;28708;52.224;6.924;2023-03-01T00:09:15;10.27;;;6.43;;
43086;SDS011;28708;52.224;6.924;2023-03-01T00:11:41;10.48;;;6.68;;
43086;SDS011;28708;52.224;6.924;2023-03-01T00:14:07;9.87;;;6.40;;
43086;SDS011;28708;52.224;6.924;2023-03-01T00:16:33;9.30;;;6.20;;
43086;SDS011;28708;52.224;6.924;2023-03-01T00:19:08;15.07;;;8.60;;
43086;SDS011;28708;52.224;6.924;2023-03-01T00:24:03;12.27;;;7.23;;
43086;SDS011;28708;52.224;6.924;2023-03-01T00:26:29;10.73;;;7.13;;
43086;SDS011;28708;52.224;6.924;2023-03-01T00:28:56;15.00;;;8.70;;
43086;SDS011;28708;52.224;6.924;2023-03-01T00:31:24;17.80;;;9.97;;
43086;SDS011;28708;52.224;6.924;2023-03-01T00:33:54;13.30;;;7.43;;
43086;SDS011;28708;52.224;6.924;2023-03-01T00:36:22;8.33;;;5.83;;
43086;SDS011;28708;52.224;6.924;2023-03-01T00:38:50;13.17;;;7.70;;
43086;SDS011;28708;52.224;6.924;2023-03-01T00:41:16;13.30;;;7.50;;
43086;SDS011;28708;52.224;6.924;2023-03-01T00:43:43;11.57;;;6.67;;
43086;SDS011;28708;52.224;6.924;2023-03-01T00:46:12;12.67;;;6.30;;
43086;SDS011;28708;52.224;6.924;2023-03-01T00:48:42;11.27;;;6.20;;
43086;SDS011;28708;52.224;6.924;2023-03-01T00:51:09;10.87;;;6.30;;
43086;SDS011;28708;52.224;6.924;2023-03-01T00:53:39;10.90;;;6.50;;
43086;SDS011;28708;52.224;6.924;2023-03-01T00:56:06;12.47;;;6.93;;
43086;SDS011;28708;52.224;6.924;2023-03-01T00:58:33;9.83;;;6.23;;
43086;SDS011;28708;52.224;6.924;2023-03-01T01:00:59;11.30;;;6.63;;
43086;SDS011;28708;52.224;6.924;2023-03-01T01:03:25;10.33;;;6.40;;
43086;SDS011;28708;52.224;6.924;2023-03-01T01:05:52;11.40;;;6.97;;
43086;SDS011;28708;52.224;6.924;2023-03-01T01:08:19;10.07;;;5.73;;
43086;SDS011;28708;52.224;6.924;2023-03-01T01:10:46;10.00;;;6.17;;
43086;SDS011;28708;52.224;6.924;2023-03-01T01:13:12;11.93;;;6.30;;
43086;SDS011;28708;52.224;6.924;2023-03-01T01:15:38;8.87;;;6.07;;
43086;SDS011;28708;52.224;6.924;2023-03-01T01:18:04;8.97;;;6.20;;
43086;SDS011;28708;52.224;6.924;2023-03-01T01:20:30;10.73;;;6.37;;
43086;SDS011;28708;52.224;6.924;2023-03-01T01:22:56;10.47;;;6.00;;
43086;SDS011;28708;52.224;6.924;2023-03-01T01:25:22;8.03;;;5.73;;
43086;SDS011;28708;52.224;6.924;2023-03-01T01:27:50;13.43;;;6.33;;
43086;SDS011;28708;52.224;6.924;2023-03-01T01:30:16;10.00;;;6.30;;
43086;SDS011;28708;52.224;6.924;2023-03-01T01:32:42;10.57;;;6.10;;
43086;SDS011;28708;52.224;6.924;2023-03-01T01:35:07;10.00;;;6.00;;
43086;SDS011;28708;52.224;6.924;2023-03-01T01:37:33;9.27;;;6.20;;
43086;SDS011;28708;52.224;6.924;2023-03-01T01:39:59;9.33;;;6.27;;
43086;SDS011;28708;52.224;6.924;2023-03-01T01:42:26;9.57;;;6.13;;
43086;SDS011;28708;52.224;6.924;2023-03-01T01:47:58;15.43;;;7.37;;
43086;SDS011;28708;52.224;6.924;2023-03-01T01:50:30;10.00;;;6.33;;
43086;SDS011;28708;52.224;6.924;2023-03-01T01:53:12;15.63;;;6.83;;
43086;SDS011;28708;52.224;6.924;2023-03-01T01:55:43;11.00;;;5.80;;
43086;SDS011;28708;52.224;6.924;2023-03-01T01:58:13;11.00;;;6.40;;
43086;SDS011;28708;52.224;6.924;2023-03-01T02:00:42;10.93;;;7.00;;
43086;SDS011;28708;52.224;6.924;2023-03-01T02:03:12;8.73;;;6.33;;
43086;SDS011;28708;52.224;6.924;2023-03-01T02:08:23;9.57;;;5.57;;
43086;SDS011;28708;52.224;6.924;2023-03-01T02:10:51;11.45;;;6.90;;
43086;SDS011;28708;52.224;6.924;2023-03-01T02:13:19;8.67;;;5.40;;
43086;SDS011;28708;52.224;6.924;2023-03-01T02:15:45;11.37;;;6.70;;
43086;SDS011;28708;52.224;6.924;2023-03-01T02:18:13;14.90;;;6.73;;
43086;SDS011;28708;52.224;6.924;2023-03-01T02:20:50;10.70;;;6.78;;
43086;SDS011;28708;52.224;6.924;2023-03-01T02:23:27;14.17;;;6.83;;
43086;SDS011;28708;52.224;6.924;2023-03-01T02:26:07;16.03;;;7.17;;
43086;SDS011;28708;52.224;6.924;2023-03-01T02:28:49;12.53;;;6.07;;
43086;SDS011;28708;52.224;6.924;2023-03-01T02:31:17;10.67;;;6.97;;
43086;SDS011;28708;52.224;6.924;2023-03-01T02:34:03;10.63;;;5.97;;
43086;SDS011;28708;52.224;6.924;2023-03-01T02:36:36;11.93;;;6.63;;
43086;SDS011;28708;52.224;6.924;2023-03-01T02:39:05;11.20;;;6.53;;
43086;SDS011;28708;52.224;6.924;2023-03-01T02:41:36;11.03;;;6.50;;
43086;SDS011;28708;52.224;6.924;2023-03-01T02:44:04;11.77;;;6.47;;
43086;SDS011;28708;52.224;6.924;2023-03-01T02:46:29;10.10;;;6.10;;
43086;SDS011;28708;52.224;6.924;2023-03-01T02:48:56;10.90;;;7.13;;
43086;SDS011;28708;52.224;6.924;2023-03-01T02:54:06;10.77;;;6.40;;
43086;SDS011;28708;52.224;6.924;2023-03-01T02:56:35;10.60;;;7.03;;
43086;SDS011;28708;52.224;6.924;2023-03-01T02:59:01;9.33;;;6.17;;
43086;SDS011;28708;52.224;6.924;2023-03-01T03:01:28;12.23;;;6.83;;
43086;SDS011;28708;52.224;6.924;2023-03-01T03:04:06;13.07;;;6.43;;
43086;SDS011;28708;52.224;6.924;2023-03-01T03:06:35;10.80;;;6.20;;
43086;SDS011;28708;52.224;6.924;2023-03-01T03:09:01;10.50;;;6.47;;
43086;SDS011;28708;52.224;6.924;2023-03-01T03:11:28;10.47;;;6.40;;
43086;SDS011;28708;52.224;6.924;2023-03-01T03:13:55;11.03;;;6.40;;
43086;SDS011;28708;52.224;6.924;2023-03-01T03:16:22;11.57;;;6.47;;
43086;SDS011;28708;52.224;6.924;2023-03-01T03:18:49;11.47;;;7.10;;
43086;SDS011;28708;52.224;6.924;2023-03-01T03:21:16;12.27;;;6.33;;
43086;SDS011;28708;52.224;6.924;2023-03-01T03:23:41;13.13;;;6.63;;
43086;SDS011;28708;52.224;6.924;2023-03-01T03:26:07;13.10;;;6.57;;
43086;SDS011;28708;52.224;6.924;2023-03-01T03:28:34;9.93;;;6.50;;
43086;SDS011;28708;52.224;6.924;2023-03-01T03:31:00;9.50;;;5.97;;
43086;SDS011;28708;52.224;6.924;2023-03-01T03:33:29;9.37;;;6.57;;
43086;SDS011;28708;52.224;6.924;2023-03-01T03:35:55;10.53;;;6.13;;
43086;SDS011;28708;52.224;6.924;2023-03-01T03:38:21;10.63;;;6.73;;
43086;SDS011;28708;52.224;6.924;2023-03-01T03:40:52;12.40;;;6.70;;
43086;SDS011;28708;52.224;6.924;2023-03-01T03:43:28;10.90;;;6.65;;
43086;SDS011;28708;52.224;6.924;2023-03-01T03:45:55;10.37;;;6.77;;
43086;SDS011;28708;52.224;6.924;2023-03-01T03:48:22;12.07;;;7.17;;
43086;SDS011;28708;52.224;6.924;2023-03-01T03:50:50;10.97;;;6.70;;
43086;SDS011;28708;52.224;6.924;2023-03-01T03:53:17;10.63;;;6.77;;
43086;SDS011;28708;52.224;6.924;2023-03-01T03:55:44;10.67;;;6.77;;
43086;SDS011;28708;52.224;6.924;2023-03-01T03:58:10;10.87;;;6.87;;
43086;SDS011;28708;52.224;6.924;2023-03-01T04:00:40;10.10;;;6.60;;
43086;SDS011;28708;52.224;6.924;2023-03-01T04:03:08;12.73;;;7.33;;
43086;SDS011;28708;52.224;6.924;2023-03-01T04:05:35;13.03;;;6.73;;
43086;SDS011;28708;52.224;6.924;2023-03-01T04:08:01;12.07;;;7.03;;
43086;SDS011;28708;52.224;6.924;2023-03-01T04:10:28;9.73;;;6.70;;
43086;SDS011;28708;52.224;6.924;2023-03-01T04:12:55;12.17;;;6.90;;
43086;SDS011;28708;52.224;6.924;2023-03-01T04:15:22;10.90;;;5.97;;
43086;SDS011;28708;52.224;6.924;2023-03-01T04:17:49;12.17;;;6.80;;
43086;SDS011;28708;52.224;6.924;2023-03-01T04:20:16;9.77;;;6.47;;
43086;SDS011;28708;52.224;6.924;2023-03-01T04:22:56;12.53;;;7.07;;
43086;SDS011;28708;52.224;6.924;2023-03-01T04:25:25;13.90;;;7.33;;
43086;SDS011;28708;52.224;6.924;2023-03-01T04:27:51;15.50;;;7.07;;
43086;SDS011;28708;52.224;6.924;2023-03-01T04:30:17;12.57;;;7.10;;
43086;SDS011;28708;52.224;6.924;2023-03-01T04:32:42;10.57;;;6.77;;
43086;SDS011;28708;52.224;6.924;2023-03-01T04:35:08;9.63;;;6.47;;
43086;SDS011;28708;52.224;6.924;2023-03-01T04:37:34;9.67;;;6.70;;
43086;SDS011;28708;52.224;6.924;2023-03-01T04:40:01;11.60;;;6.87;;
43086;SDS011;28708;52.224;6.924;2023-03-01T04:42:37;10.20;;;6.70;;
43086;SDS011;28708;52.224;6.924;2023-03-01T04:45:03;11.87;;;6.63;;
43086;SDS011;28708;52.224;6.924;2023-03-01T04:47:38;11.10;;;6.83;;
43086;SDS011;28708;52.224;6.924;2023-03-01T04:50:04;11.63;;;7.20;;
43086;SDS011;28708;52.224;6.924;2023-03-01T04:52:30;12.63;;;7.77;;
43086;SDS011;28708;52.224;6.924;2023-03-01T04:54:56;17.57;;;7.30;;
43086;SDS011;28708;52.224;6.924;2023-03-01T04:57:22;11.40;;;7.03;;
43086;SDS011;28708;52.224;6.924;2023-03-01T04:59:47;11.33;;;6.93;;
43086;SDS011;28708;52.224;6.924;2023-03-01T05:02:13;12.73;;;7.00;;
43086;SDS011;28708;52.224;6.924;2023-03-01T05:04:39;11.33;;;6.67;;
43086;SDS011;28708;52.224;6.924;2023-03-01T05:07:04;11.77;;;6.90;;
43086;SDS011;28708;52.224;6.924;2023-03-01T05:09:30;11.97;;;7.03;;
43086;SDS011;28708;52.224;6.924;2023-03-01T05:11:55;10.93;;;6.90;;
43086;SDS011;28708;52.224;6.924;2023-03-01T05:14:21;11.63;;;6.50;;
43086;SDS011;28708;52.224;6.924;2023-03-01T05:16:48;12.10;;;6.90;;
43086;SDS011;28708;52.224;6.924;2023-03-01T05:19:13;11.40;;;7.10;;
43086;SDS011;28708;52.224;6.924;2023-03-01T05:21:47;11.83;;;7.00;;
43086;SDS011;28708;52.224;6.924;2023-03-01T05:24:32;10.60;;;7.00;;
43086;SDS011;28708;52.224;6.924;2023-03-01T05:26:59;9.77;;;6.63;;
43086;SDS011;28708;52.224;6.924;2023-03-01T05:29:26;10.73;;;6.27;;
43086;SDS011;28708;52.224;6.924;2023-03-01T05:31:57;11.23;;;6.70;;
43086;SDS011;28708;52.224;6.924;2023-03-01T05:34:28;11.40;;;7.30;;
43086;SDS011;28708;52.224;6.924;2023-03-01T05:36:55;14.50;;;7.63;;
43086;SDS011;28708;52.224;6.924;2023-03-01T05:39:22;14.07;;;7.73;;
43086;SDS011;28708;52.224;6.924;2023-03-01T05:41:54;13.15;;;6.95;;
43086;SDS011;28708;52.224;6.924;2023-03-01T05:44:24;13.50;;;7.07;;
43086;SDS011;28708;52.224;6.924;2023-03-01T05:46:51;11.70;;;6.77;;
43086;SDS011;28708;52.224;6.924;2023-03-01T05:49:17;12.80;;;7.53;;
43086;SDS011;28708;52.224;6.924;2023-03-01T05:51:43;12.10;;;7.27;;
43086;SDS011;28708;52.224;6.924;2023-03-01T05:56:39;13.57;;;8.30;;
43086;SDS011;28708;52.224;6.924;2023-03-01T05:59:05;15.27;;;9.20;;
43086;SDS011;28708;52.224;6.924;2023-03-01T06:01:31;15.00;;;9.30;;
43086;SDS011;28708;52.224;6.924;2023-03-01T06:03:57;16.03;;;7.73;;
43086;SDS011;28708;52.224;6.924;2023-03-01T06:06:23;16.27;;;9.30;;
43086;SDS011;28708;52.224;6.924;2023-03-01T06:08:49;13.23;;;8.10;;
43086;SDS011;28708;52.224;6.924;2023-03-01T06:11:16;16.03;;;8.63;;
43086;SDS011;28708;52.224;6.924;2023-03-01T06:13:42;25.47;;;14.07;;
43086;SDS011;28708;52.224;6.924;2023-03-01T06:16:08;35.57;;;20.63;;
43086;SDS011;28708;52.224;6.924;2023-03-01T06:18:35;26.33;;;14.80;;
43086;SDS011;28708;52.224;6.924;2023-03-01T06:21:01;28.13;;;13.20;;
43086;SDS011;28708;52.224;6.924;2023-03-01T06:23:27;27.47;;;18.57;;
43086;SDS011;28708;52.224;6.924;2023-03-01T06:25:53;27.43;;;17.53;;
43086;SDS011;28708;52.224;6.924;2023-03-01T06:28:19;15.30;;;9.17;;
43086;SDS011;28708;52.224;6.924;2023-03-01T06:30:44;13.90;;;8.50;;
43086;SDS011;28708;52.224;6.924;2023-03-01T06:33:11;16.70;;;10.60;;
43086;SDS011;28708;52.224;6.924;2023-03-01T06:35:36;13.87;;;8.40;;
43086;SDS011;28708;52.224;6.924;2023-03-01T06:38:03;15.37;;;8.47;;
43086;SDS011;28708;52.224;6.924;2023-03-01T06:40:29;11.97;;;8.33;;
43086;SDS011;28708;52.224;6.924;2023-03-01T06:42:56;14.57;;;9.07;;
43086;SDS011;28708;52.224;6.924;2023-03-01T06:45:22;18.33;;;9.10;;
43086;SDS011;28708;52.224;6.924;2023-03-01T06:47:47;16.40;;;8.67;;
43086;SDS011;28708;52.224;6.924;2023-03-01T06:50:14;17.20;;;8.77;;
43086;SDS011;28708;52.224;6.924;2023-03-01T06:52:40;17.75;;;9.63;;
43086;SDS011;28708;52.224;6.924;2023-03-01T06:55:06;18.03;;;9.77;;
43086;SDS011;28708;52.224;6.924;2023-03-01T06:57:32;16.90;;;9.27;;
43086;SDS011;28708;52.224;6.924;2023-03-01T06:59:58;18.13;;;10.90;;
43086;SDS011;28708;52.224;6.924;2023-03-01T07:02:24;18.37;;;9.50;;
43086;SDS011;28708;52.224;6.924;2023-03-01T07:04:49;17.10;;;9.37;;
43086;SDS011;28708;52.224;6.924;2023-03-01T07:07:15;14.93;;;8.97;;
43086;SDS011;28708;52.224;6.924;2023-03-01T07:09:43;16.67;;;9.03;;
43086;SDS011;28708;52.224;6.924;2023-03-01T07:14:38;15.70;;;10.33;;
43086;SDS011;28708;52.224;6.924;2023-03-01T07:17:04;14.87;;;8.60;;
43086;SDS011;28708;52.224;6.924;2023-03-01T07:19:29;20.83;;;9.70;;
43086;SDS011;28708;52.224;6.924;2023-03-01T07:21:55;16.73;;;9.70;;
43086;SDS011;28708;52.224;6.924;2023-03-01T07:24:21;14.43;;;8.50;;
43086;SDS011;28708;52.224;6.924;2023-03-01T07:26:51;16.63;;;9.10;;
43086;SDS011;28708;52.224;6.924;2023-03-01T07:29:17;15.05;;;9.38;;
43086;SDS011;28708;52.224;6.924;2023-03-01T07:31:43;13.63;;;8.80;;
43086;SDS011;28708;52.224;6.924;2023-03-01T07:34:09;14.97;;;9.00;;
43086;SDS011;28708;52.224;6.924;2023-03-01T07:36:35;15.13;;;9.53;;
43086;SDS011;28708;52.224;6.924;2023-03-01T07:39:01;15.67;;;9.53;;
43086;SDS011;28708;52.224;6.924;2023-03-01T07:41:28;14.07;;;8.63;;
43086;SDS011;28708;52.224;6.924;2023-03-01T07:43:54;15.00;;;9.33;;
43086;SDS011;28708;52.224;6.924;2023-03-01T07:46:20;15.67;;;9.83;;
43086;SDS011;28708;52.224;6.924;2023-03-01T07:48:45;17.70;;;10.70;;
43086;SDS011;28708;52.224;6.924;2023-03-01T07:51:11;16.80;;;8.93;;
43086;SDS011;28708;52.224;6.924;2023-03-01T07:53:37;15.43;;;9.87;;
43086;SDS011;28708;52.224;6.924;2023-03-01T07:56:10;20.37;;;9.30;;
43086;SDS011;28708;52.224;6.924;2023-03-01T07:58:37;13.60;;;9.33;;
43086;SDS011;28708;52.224;6.924;2023-03-01T08:01:05;13.63;;;8.50;;
43086;SDS011;28708;52.224;6.924;2023-03-01T08:03:32;18.13;;;9.57;;
43086;SDS011;28708;52.224;6.924;2023-03-01T08:05:59;21.47;;;9.87;;
43086;SDS011;28708;52.224;6.924;2023-03-01T08:08:26;13.00;;;9.10;;
43086;SDS011;28708;52.224;6.924;2023-03-01T08:10:51;14.93;;;9.53;;
43086;SDS011;28708;52.224;6.924;2023-03-01T08:13:17;17.20;;;9.53;;
43086;SDS011;28708;52.224;6.924;2023-03-01T08:15:47;14.68;;;9.80;;
43086;SDS011;28708;52.224;6.924;2023-03-01T08:18:17;15.82;;;9.32;;
43086;SDS011;28708;52.224;6.924;2023-03-01T08:20:43;21.00;;;9.87;;
43086;SDS011;28708;52.224;6.924;2023-03-01T08:23:09;14.07;;;9.17;;
43086;SDS011;28708;52.224;6.924;2023-03-01T08:25:35;13.67;;;9.17;;
43086;SDS011;28708;52.224;6.924;2023-03-01T08:28:01;16.73;;;9.47;;
43086;SDS011;28708;52.224;6.924;2023-03-01T08:30:26;14.73;;;8.80;;
43086;SDS011;28708;52.224;6.924;2023-03-01T08:32:52;17.43;;;9.70;;
43086;SDS011;28708;52.224;6.924;2023-03-01T08:35:18;15.53;;;10.40;;
43086;SDS011;28708;52.224;6.924;2023-03-01T08:37:44;14.93;;;9.10;;
43086;SDS011;28708;52.224;6.924;2023-03-01T08:40:10;16.13;;;9.33;;
43086;SDS011;28708;52.224;6.924;2023-03-01T08:42:38;15.47;;;9.03;;
43086;SDS011;28708;52.224;6.924;2023-03-01T08:45:06;12.93;;;8.57;;
43086;SDS011;28708;52.224;6.924;2023-03-01T08:47:32;13.57;;;8.53;;
43086;SDS011;28708;52.224;6.924;2023-03-01T08:49:58;16.13;;;8.00;;
43086;SDS011;28708;52.224;6.924;2023-03-01T08:52:25;12.70;;;8.30;;
43086;SDS011;28708;52.224;6.924;2023-03-01T08:54:51;14.97;;;8.53;;
43086;SDS011;28708;52.224;6.924;2023-03-01T08:57:17;11.87;;;7.33;;
43086;SDS011;28708;52.224;6.924;2023-03-01T08:59:43;12.10;;;7.87;;
43086;SDS011;28708;52.224;6.924;2023-03-01T09:02:16;13.30;;;7.90;;
43086;SDS011;28708;52.224;6.924;2023-03-01T09:04:43;28.20;;;25.13;;
43086;SDS011;28708;52.224;6.924;2023-03-01T09:07:09;12.77;;;7.87;;
43086;SDS011;28708;52.224;6.924;2023-03-01T09:09:36;12.63;;;6.93;;
43086;SDS011;28708;52.224;6.924;2023-03-01T09:12:02;14.60;;;7.70;;
43086;SDS011;28708;52.224;6.924;2023-03-01T09:14:28;11.00;;;6.63;;
43086;SDS011;28708;52.224;6.924;2023-03-01T09:16:54;12.27;;;7.07;;
43086;SDS011;28708;52.224;6.924;2023-03-01T09:19:20;11.47;;;6.67;;
43086;SDS011;28708;52.224;6.924;2023-03-01T09:21:45;10.33;;;6.23;;
43086;SDS011;28708;52.224;6.924;2023-03-01T09:24:18;13.13;;;6.40;;
43086;SDS011;28708;52.224;6.924;2023-03-01T09:26:45;10.60;;;6.33;;
43086;SDS011;28708;52.224;6.924;2023-03-01T09:29:11;13.13;;;6.37;;
43086;SDS011;28708;52.224;6.924;2023-03-01T09:31:38;9.30;;;6.17;;
43086;SDS011;28708;52.224;6.924;2023-03-01T09:34:04;12.17;;;6.60;;
43086;SDS011;28708;52.224;6.924;2023-03-01T09:36:30;8.97;;;5.70;;
43086;SDS011;28708;52.224;6.924;2023-03-01T09:38:56;13.30;;;5.20;;
43086;SDS011;28708;52.224;6.924;2023-03-01T09:47:04;9.83;;;6.23;;
43086;SDS011;28708;52.224;6.924;2023-03-01T09:49:35;12.77;;;6.37;;
43086;SDS011;28708;52.224;6.924;2023-03-01T09:54:46;10.37;;;5.73;;
43086;SDS011;28708;52.224;6.924;2023-03-01T09:57:18;11.10;;;5.60;;
43086;SDS011;28708;52.224;6.924;2023-03-01T09:59:56;9.07;;;5.30;;
43086;SDS011;28708;52.224;6.924;2023-03-01T10:06:01;9.07;;;4.90;;
43086;SDS011;28708;52.224;6.924;2023-03-01T10:08:54;8.33;;;4.73;;
43086;SDS011;28708;52.224;6.924;2023-03-01T10:11:50;9.37;;;5.47;;
43086;SDS011;28708;52.224;6.924;2023-03-01T10:16:57;13.03;;;5.37;;
43086;SDS011;28708;52.224;6.924;2023-03-01T10:19:38;8.17;;;4.67;;
43086;SDS011;28708;52.224;6.924;2023-03-01T10:22:26;7.83;;;4.03;;
43086;SDS011;28708;52.224;6.924;2023-03-01T10:24:54;8.53;;;4.67;;
43086;SDS011;28708;52.224;6.924;2023-03-01T10:27:29;9.03;;;3.90;;
43086;SDS011;28708;52.224;6.924;2023-03-01T10:30:05;7.72;;;4.00;;
43086;SDS011;28708;52.224;6.924;2023-03-01T10:32:36;7.60;;;4.27;;
43086;SDS011;28708;52.224;6.924;2023-03-01T10:35:14;10.50;;;4.67;;
43086;SDS011;28708;52.224;6.924;2023-03-01T10:40:34;9.03;;;4.57;;
43086;SDS011;28708;52.224;6.924;2023-03-01T10:43:02;7.87;;;4.23;;
43086;SDS011;28708;52.224;6.924;2023-03-01T10:50:50;7.13;;;4.00;;
43086;SDS011;28708;52.224;6.924;2023-03-01T10:53:37;8.63;;;4.33;;
43086;SDS011;28708;52.224;6.924;2023-03-01T10:56:08;10.37;;;5.03;;
43086;SDS011;28708;52.224;6.924;2023-03-01T10:58:41;10.27;;;4.80;;
43086;SDS011;28708;52.224;6.924;2023-03-01T11:01:27;8.07;;;4.73;;
43086;SDS011;28708;52.224;6.924;2023-03-01T11:06:32;9.87;;;4.97;;
43086;SDS011;28708;52.224;6.924;2023-03-01T11:09:21;7.13;;;4.68;;
43086;SDS011;28708;52.224;6.924;2023-03-01T11:11:52;8.07;;;4.83;;
43086;SDS011;28708;52.224;6.924;2023-03-01T11:16:58;9.73;;;4.68;;
43086;SDS011;28708;52.224;6.924;2023-03-01T11:19:29;10.77;;;5.03;;
43086;SDS011;28708;52.224;6.924;2023-03-01T11:24:40;10.37;;;5.00;;
43086;SDS011;28708;52.224;6.924;2023-03-01T11:30:02;8.47;;;4.53;;
43086;SDS011;28708;52.224;6.924;2023-03-01T11:32:38;9.50;;;5.20;;
43086;SDS011;28708;52.224;6.924;2023-03-01T11:40:33;8.13;;;4.73;;
43086;SDS011;28708;52.224;6.924;2023-03-01T11:45:42;9.17;;;4.70;;
43086;SDS011;28708;52.224;6.924;2023-03-01T11:51:05;8.80;;;4.80;;
43086;SDS011;28708;52.224;6.924;2023-03-01T11:56:34;8.07;;;5.07;;
43086;SDS011;28708;52.224;6.924;2023-03-01T12:07:31;9.83;;;5.53;;
43086;SDS011;28708;52.224;6.924;2023-03-01T12:24:10;12.87;;;5.77;;
43086;SDS011;28708;52.224;6.924;2023-03-01T12:43:07;7.93;;;5.17;;
43086;SDS011;28708;52.224;6.924;2023-03-01T12:48:08;8.70;;;4.63;;
43086;SDS011;28708;52.224;6.924;2023-03-01T12:50:49;7.50;;;4.60;;
43086;SDS011;28708;52.224;6.924;2023-03-01T12:55:50;8.23;;;4.30;;
43086;SDS011;28708;52.224;6.924;2023-03-01T13:04:18;7.60;;;3.63;;
43086;SDS011;28708;52.224;6.924;2023-03-01T13:17:53;7.20;;;3.20;;
43086;SDS011;28708;52.224;6.924;2023-03-01T13:20:21;8.60;;;3.10;;
43086;SDS011;28708;52.224;6.924;2023-03-01T13:23:00;6.60;;;3.30;;
43086;SDS011;28708;52.224;6.924;2023-03-01T13:25:27;6.73;;;3.63;;
43086;SDS011;28708;52.224;6.924;2023-03-01T13:27:54;5.97;;;3.70;;
43086;SDS011;28708;52.224;6.924;2023-03-01T13:30:58;11.77;;;4.47;;
43086;SDS011;28708;52.224;6.924;2023-03-01T13:35:56;6.37;;;3.80;;
43086;SDS011;28708;52.224;6.924;2023-03-01T13:41:01;7.53;;;3.80;;
43086;SDS011;28708;52.224;6.924;2023-03-01T13:43:40;8.30;;;3.60;;
43086;SDS011;28708;52.224;6.924;2023-03-01T13:48:41;7.13;;;3.53;;
43086;SDS011;28708;52.224;6.924;2023-03-01T13:51:10;5.93;;;3.63;;
43086;SDS011;28708;52.224;6.924;2023-03-01T13:53:38;6.40;;;3.67;;
43086;SDS011;28708;52.224;6.924;2023-03-01T13:56:28;6.73;;;3.97;;
43086;SDS011;28708;52.224;6.924;2023-03-01T13:59:02;7.43;;;4.07;;
43086;SDS011;28708;52.224;6.924;2023-03-01T14:01:33;7.07;;;4.20;;
43086;SDS011;28708;52.224;6.924;2023-03-01T14:04:01;6.03;;;3.60;;
43086;SDS011;28708;52.224;6.924;2023-03-01T14:06:29;6.13;;;3.50;;
43086;SDS011;28708;52.224;6.924;2023-03-01T14:09:05;7.17;;;3.53;;
43086;SDS011;28708;52.224;6.924;2023-03-01T14:19:54;6.73;;;2.63;;
43086;SDS011;28708;52.224;6.924;2023-03-01T14:24:58;9.43;;;3.23;;
43086;SDS011;28708;52.224;6.924;2023-03-01T14:27:38;7.03;;;3.50;;
43086;SDS011;28708;52.224;6.924;2023-03-01T14:30:14;15.80;;;3.67;;
43086;SDS011;28708;52.224;6.924;2023-03-01T14:32:51;5.80;;;2.97;;
43086;SDS011;28708;52.224;6.924;2023-03-01T14:35:29;5.30;;;2.87;;
43086;SDS011;28708;52.224;6.924;2023-03-01T14:37:56;5.23;;;2.67;;
43086;SDS011;28708;52.224;6.924;2023-03-01T14:40:27;7.27;;;2.70;;
43086;SDS011;28708;52.224;6.924;2023-03-01T14:42:55;6.57;;;2.90;;
43086;SDS011;28708;52.224;6.924;2023-03-01T14:45:24;5.77;;;2.70;;
43086;SDS011;28708;52.224;6.924;2023-03-01T14:47:51;5.93;;;2.97;;
43086;SDS011;28708;52.224;6.924;2023-03-01T14:50:24;6.00;;;2.97;;
43086;SDS011;28708;52.224;6.924;2023-03-01T14:52:58;4.70;;;2.63;;
43086;SDS011;28708;52.224;6.924;2023-03-01T14:58:03;5.60;;;3.10;;
43086;SDS011;28708;52.224;6.924;2023-03-01T15:00:31;8.70;;;2.80;;
43086;SDS011;28708;52.224;6.924;2023-03-01T15:03:07;6.13;;;3.07;;
43086;SDS011;28708;52.224;6.924;2023-03-01T15:05:38;4.93;;;2.77;;
43086;SDS011;28708;52.224;6.924;2023-03-01T15:08:05;7.83;;;5.50;;
43086;SDS011;28708;52.224;6.924;2023-03-01T15:10:35;8.13;;;3.40;;
43086;SDS011;28708;52.224;6.924;2023-03-01T15:15:38;7.13;;;4.27;;
43086;SDS011;28708;52.224;6.924;2023-03-01T15:18:16;8.88;;;4.35;;
43086;SDS011;28708;52.224;6.924;2023-03-01T15:20:53;7.07;;;3.80;;
43086;SDS011;28708;52.224;6.924;2023-03-01T15:23:24;6.23;;;3.10;;
43086;SDS011;28708;52.224;6.924;2023-03-01T15:25:52;5.77;;;3.10;;
43086;SDS011;28708;52.224;6.924;2023-03-01T15:28:25;7.38;;;3.35;;
43086;SDS011;28708;52.224;6.924;2023-03-01T15:31:41;5.17;;;3.27;;
43086;SDS011;28708;52.224;6.924;2023-03-01T15:33:46;6.88;;;3.58;;
43086;SDS011;28708;52.224;6.924;2023-03-01T15:36:30;8.87;;;4.40;;
43086;SDS011;28708;52.224;6.924;2023-03-01T15:39:05;9.37;;;3.73;;
43086;SDS011;28708;52.224;6.924;2023-03-01T15:41:51;6.90;;;4.10;;
43086;SDS011;28708;52.224;6.924;2023-03-01T15:44:24;6.87;;;4.00;;
43086;SDS011;28708;52.224;6.924;2023-03-01T15:46:54;10.73;;;3.90;;
43086;SDS011;28708;52.224;6.924;2023-03-01T15:49:40;7.37;;;4.20;;
43086;SDS011;28708;52.224;6.924;2023-03-01T15:52:12;8.43;;;4.00;;
43086;SDS011;28708;52.224;6.924;2023-03-01T15:54:54;7.67;;;3.77;;
43086;SDS011;28708;52.224;6.924;2023-03-01T15:57:27;8.77;;;3.87;;
43086;SDS011;28708;52.224;6.924;2023-03-01T15:59:53;9.13;;;3.80;;
43086;SDS011;28708;52.224;6.924;2023-03-01T16:02:19;5.93;;;3.13;;
43086;SDS011;28708;52.224;6.924;2023-03-01T16:04:46;6.63;;;3.80;;
43086;SDS011;28708;52.224;6.924;2023-03-01T16:07:13;8.87;;;3.90;;
43086;SDS011;28708;52.224;6.924;2023-03-01T16:09:39;8.67;;;3.97;;
43086;SDS011;28708;52.224;6.924;2023-03-01T16:12:05;9.73;;;4.30;;
43086;SDS011;28708;52.224;6.924;2023-03-01T16:14:33;7.50;;;3.90;;
43086;SDS011;28708;52.224;6.924;2023-03-01T16:16:59;7.00;;;3.77;;
43086;SDS011;28708;52.224;6.924;2023-03-01T16:19:25;8.63;;;3.83;;
43086;SDS011;28708;52.224;6.924;2023-03-01T16:21:50;8.60;;;4.23;;
43086;SDS011;28708;52.224;6.924;2023-03-01T16:24:16;7.73;;;3.90;;
43086;SDS011;28708;52.224;6.924;2023-03-01T16:26:42;10.00;;;3.67;;
43086;SDS011;28708;52.224;6.924;2023-03-01T16:29:07;9.27;;;4.40;;
43086;SDS011;28708;52.224;6.924;2023-03-01T16:31:33;8.77;;;4.63;;
43086;SDS011;28708;52.224;6.924;2023-03-01T16:33:59;7.90;;;3.90;;
43086;SDS011;28708;52.224;6.924;2023-03-01T16:36:25;7.33;;;3.87;;
43086;SDS011;28708;52.224;6.924;2023-03-01T16:38:53;6.83;;;4.20;;
43086;SDS011;28708;52.224;6.924;2023-03-01T16:41:22;10.27;;;4.90;;
43086;SDS011;28708;52.224;6.924;2023-03-01T16:43:48;8.63;;;4.50;;
43086;SDS011;28708;52.224;6.924;2023-03-01T16:46:15;8.60;;;4.73;;
43086;SDS011;28708;52.224;6.924;2023-03-01T16:48:46;8.67;;;4.10;;
43086;SDS011;28708;52.224;6.924;2023-03-01T16:51:13;8.10;;;4.30;;
43086;SDS011;28708;52.224;6.924;2023-03-01T16:53:39;6.60;;;3.60;;
43086;SDS011;28708;52.224;6.924;2023-03-01T16:56:07;9.70;;;4.43;;
43086;SDS011;28708;52.224;6.924;2023-03-01T16:58:35;8.67;;;4.30;;
43086;SDS011;28708;52.224;6.924;2023-03-01T17:01:09;10.20;;;4.50;;
43086;SDS011;28708;52.224;6.924;2023-03-01T17:03:35;10.23;;;4.83;;
43086;SDS011;28708;52.224;6.924;2023-03-01T17:06:02;7.40;;;3.70;;
43086;SDS011;28708;52.224;6.924;2023-03-01T17:08:29;7.07;;;4.37;;
43086;SDS011;28708;52.224;6.924;2023-03-01T17:10:55;7.33;;;4.30;;
43086;SDS011;28708;52.224;6.924;2023-03-01T17:13:20;8.40;;;4.57;;
43086;SDS011;28708;52.224;6.924;2023-03-01T17:15:48;7.73;;;4.60;;
43086;SDS011;28708;52.224;6.924;2023-03-01T17:18:14;7.40;;;4.43;;